Monday, June 25, 2018, 4:04 AM GMT
Back to Local

CWST, La Pocatiere

Location: , , Canada Lat: 47.35
Local Time: 4:04 AM GMT ( 4:04 GMT) Lon: -70.033
Time Zone: GMT Elev: 101 ft

Show me the last for .
Show Coded

Time T Td Feel RH Dir Speed Gust Alt SLP Vis Weather Sky Remarks
2018-06-25 03:00 54 53 - 94 120° 2 - - 29.89 0 None
2018-06-25 02:00 53 52 - 96 150° 1 - - 29.90 0 None
2018-06-25 01:00 55 53 - 92 - Calm - - 29.88 0 None
2018-06-25 00:00 59 52 - 78 10° 1 - - 29.87 0 None
2018-06-24 23:00 60 53 - 76 340° 5 - - 29.86 0 None
2018-06-24 22:00 63 53 - 70 360° 2 - - 29.86 0 None
2018-06-24 21:00 63 52 - 66 30° 5 - - 29.86 0 None
2018-06-24 20:00 62 53 - 73 40° 7 - - 29.86 0 None
2018-06-24 19:00 61 53 - 75 60° 7 - - 29.85 0 None
2018-06-24 18:00 61 51 - 70 50° 9 - - 29.85 0 None
2018-06-24 17:00 60 50 - 68 40° 9 - - 29.84 0 None
2018-06-24 16:00 61 50 - 66 40° 10 18 - 29.83 0 Peak wind: 21 mph (19 kts) from 40° at 12 min
2018-06-24 15:00 65 51 - 61 30° 10 - - 29.81 0 Peak wind: 20 mph (18 kts) from 20° at 36 min
2018-06-24 14:00 63 52 - 66 50° 13 20 - 29.78 0 Peak wind: 19 mph (17 kts) from 40° at 56 min
2018-06-24 13:00 62 53 - 71 20° 7 - - 29.78 0 None
2018-06-24 12:00 62 52 - 70 40° 7 - - 29.76 0 None
2018-06-24 11:00 64 59 - 84 260° 8 - - 29.73 0 None
2018-06-24 10:00 63 58 - 85 240° 6 - - 29.70 0 None
2018-06-24 09:00 62 58 - 87 230° 12 - - 29.69 0 None
2018-06-24 08:00 65 58 - 78 230° 10 - - 29.68 0 None
2018-06-24 07:00 66 57 - 73 230° 10 - - 29.68 0 None
2018-06-24 06:00 67 57 - 68 230° 9 - - 29.69 0 None
2018-06-24 05:00 68 57 - 68 230° 12 - - 29.70 0 None

Support USWX by starting your Amazon purchase here.